createdAt,value
2018-06-05T00:00:31.255Z,67.66
2018-06-05T00:02:59.326Z,68.02
2018-06-05T00:05:27.390Z,68.32
2018-06-05T00:07:55.475Z,68.54
2018-06-05T00:10:23.526Z,68.55
2018-06-05T00:12:51.771Z,68.56
2018-06-05T00:15:19.851Z,68.57
2018-06-05T00:17:47.939Z,69.89
2018-06-05T00:20:16.008Z,69.00
2018-06-05T00:22:44.074Z,69.92
2018-06-05T00:25:12.152Z,69.28
2018-06-05T00:27:40.220Z,70.27
2018-06-05T00:30:08.279Z,69.42
2018-06-05T00:32:36.385Z,70.31
2018-06-05T00:35:04.447Z,70.13
2018-06-05T00:37:32.526Z,70.17
2018-06-05T00:40:00.603Z,70.14
2018-06-05T00:42:28.667Z,70.28
2018-06-05T00:44:56.724Z,70.83
2018-06-05T00:47:24.787Z,70.80
2018-06-05T00:49:52.885Z,70.94
2018-06-05T00:52:20.951Z,70.32
2018-06-05T00:54:49.015Z,70.72
2018-06-05T00:57:17.286Z,71.03
2018-06-05T00:59:45.367Z,71.81
2018-06-05T01:02:13.616Z,71.76
2018-06-05T01:04:41.658Z,71.89
2018-06-05T01:07:09.746Z,71.31
2018-06-05T01:09:37.800Z,71.53
2018-06-05T01:12:06.172Z,71.96
2018-06-05T01:14:34.300Z,72.47
2018-06-05T01:17:02.381Z,72.69
2018-06-05T01:19:30.453Z,71.81
2018-06-05T01:21:58.788Z,72.50
2018-06-05T01:24:27.056Z,71.77
2018-06-05T01:26:55.162Z,72.24
2018-06-05T01:29:23.218Z,72.40
2018-06-05T01:31:51.282Z,72.46
2018-06-05T01:34:19.343Z,72.72
2018-06-05T01:36:47.433Z,72.11
2018-06-05T01:39:15.511Z,72.41
2018-06-05T01:41:43.666Z,72.20
2018-06-05T01:44:11.776Z,72.58
2018-06-05T01:46:39.903Z,72.48
2018-06-05T01:49:08.002Z,72.04
2018-06-05T01:51:36.055Z,72.24
2018-06-05T01:54:04.131Z,71.83
2018-06-05T01:56:32.197Z,73.07
2018-06-05T01:59:00.251Z,72.05
2018-06-05T02:01:28.315Z,72.65
2018-06-05T02:03:56.371Z,73.29
2018-06-05T02:06:24.432Z,72.05
2018-06-05T02:08:52.490Z,73.27
2018-06-05T02:11:20.571Z,73.50
2018-06-05T02:13:48.706Z,73.45
2018-06-05T02:16:16.777Z,73.18
2018-06-05T02:18:44.868Z,73.11
2018-06-05T02:21:12.950Z,73.83
2018-06-05T02:23:41.496Z,73.54
2018-06-05T02:26:09.544Z,73.15
2018-06-05T02:28:37.637Z,73.46
2018-06-05T02:31:05.679Z,73.60
2018-06-05T02:33:33.767Z,73.41
2018-06-05T02:36:01.811Z,74.61
2018-06-05T02:38:29.891Z,74.37
2018-06-05T02:40:57.947Z,74.73
2018-06-05T02:43:26.075Z,74.22
2018-06-05T02:45:54.275Z,74.48
2018-06-05T02:48:22.344Z,74.21
2018-06-05T02:50:50.404Z,74.53
2018-06-05T02:53:18.479Z,74.49
2018-06-05T02:55:46.555Z,74.66
2018-06-05T02:58:14.652Z,74.29
2018-06-05T03:00:42.725Z,75.37
2018-06-05T03:03:11.045Z,75.41
2018-06-05T03:05:39.247Z,75.67
2018-06-05T03:08:07.314Z,75.16
2018-06-05T03:10:35.388Z,75.00
2018-06-05T03:13:03.480Z,75.06
2018-06-05T03:15:33.315Z,75.04
2018-06-05T03:18:01.401Z,75.59
2018-06-05T03:20:29.471Z,75.13
2018-06-05T03:22:57.542Z,75.73
2018-06-05T03:25:25.610Z,75.76
2018-06-05T03:27:53.723Z,75.09
2018-06-05T03:30:21.858Z,75.75
2018-06-05T03:32:50.068Z,75.38
2018-06-05T03:35:18.143Z,76.07
2018-06-05T03:37:46.414Z,76.42
2018-06-05T03:40:14.519Z,76.21
2018-06-05T03:42:42.611Z,75.77
2018-06-05T03:45:10.733Z,76.77
2018-06-05T03:47:38.902Z,76.29
2018-06-05T03:50:06.994Z,76.03
2018-06-05T03:52:35.106Z,75.90
2018-06-05T03:55:03.231Z,76.91
2018-06-05T03:57:31.313Z,76.68
2018-06-05T03:59:59.347Z,76.67
2018-06-05T04:02:27.408Z,76.15
2018-06-05T04:04:55.519Z,75.90
2018-06-05T04:07:23.759Z,76.15
2018-06-05T04:09:51.962Z,76.34
2018-06-05T04:12:20.027Z,76.68
2018-06-05T04:14:48.108Z,76.50
2018-06-05T04:17:16.357Z,76.40
2018-06-05T04:19:44.464Z,76.73
2018-06-05T04:22:12.521Z,76.16
2018-06-05T04:24:40.582Z,75.93
2018-06-05T04:27:08.708Z,75.95
2018-06-05T04:29:36.751Z,75.93
2018-06-05T04:32:04.850Z,75.54
2018-06-05T04:34:32.910Z,76.00
2018-06-05T04:37:00.960Z,75.57
2018-06-05T04:39:29.228Z,76.43
2018-06-05T04:41:57.306Z,76.21
2018-06-05T04:44:25.385Z,75.59
2018-06-05T04:46:53.472Z,75.65
2018-06-05T04:49:21.538Z,75.52
2018-06-05T04:51:49.667Z,75.83
2018-06-05T04:54:17.771Z,75.51
2018-06-05T04:56:46.015Z,75.80
2018-06-05T04:59:14.119Z,76.05
2018-06-05T05:01:42.176Z,75.79
2018-06-05T05:04:10.428Z,75.57
2018-06-05T05:06:38.506Z,75.71
2018-06-05T05:09:07.261Z,75.82
2018-06-05T05:11:35.565Z,75.67
2018-06-05T05:14:03.843Z,74.98
2018-06-05T05:16:31.967Z,75.15
2018-06-05T05:19:00.043Z,75.42
2018-06-05T05:21:28.111Z,74.68
2018-06-05T05:23:56.253Z,74.51
2018-06-05T05:26:24.337Z,73.89
2018-06-05T05:28:52.427Z,73.60
2018-06-05T05:31:20.670Z,73.67
2018-06-05T05:33:48.743Z,73.80
2018-06-05T05:36:16.851Z,74.01
2018-06-05T05:38:44.938Z,73.72
2018-06-05T05:41:13.074Z,73.51
2018-06-05T05:43:41.152Z,73.29
2018-06-05T05:46:09.217Z,73.57
2018-06-05T05:48:37.312Z,72.32
2018-06-05T05:51:05.399Z,72.21
2018-06-05T05:53:33.467Z,71.95
2018-06-05T05:56:01.532Z,71.53
2018-06-05T05:58:29.668Z,72.02
2018-06-05T06:00:57.724Z,70.93
2018-06-05T06:03:26.863Z,71.78
2018-06-05T06:05:54.918Z,72.12
2018-06-05T06:08:22.987Z,71.42
2018-06-05T06:10:51.122Z,70.84
2018-06-05T06:13:19.149Z,70.73
2018-06-05T06:15:47.210Z,70.96
2018-06-05T06:18:15.292Z,71.33
2018-06-05T06:20:43.466Z,71.99
2018-06-05T06:23:11.519Z,71.31
2018-06-05T06:25:39.601Z,71.19
2018-06-05T06:28:07.832Z,71.62
2018-06-05T06:30:35.911Z,71.57
2018-06-05T06:33:03.985Z,70.99
2018-06-05T06:35:32.067Z,70.95
2018-06-05T06:38:00.132Z,70.74
2018-06-05T06:40:28.223Z,70.93
2018-06-05T06:42:56.268Z,70.62
2018-06-05T06:45:24.332Z,70.80
2018-06-05T06:50:19.576Z,71.13
2018-06-05T06:52:47.795Z,71.47
2018-06-05T06:55:15.873Z,70.54
2018-06-05T06:57:43.930Z,71.02
2018-06-05T07:02:39.104Z,70.84
2018-06-05T07:05:07.187Z,70.67
2018-06-05T07:07:35.299Z,70.73
2018-06-05T07:10:03.501Z,71.04
2018-06-05T07:12:31.602Z,70.43
2018-06-05T07:14:59.664Z,70.91
2018-06-05T07:17:27.740Z,70.39
2018-06-05T07:19:55.806Z,69.83
2018-06-05T07:22:23.877Z,70.18
2018-06-05T07:24:51.931Z,69.33
2018-06-05T07:27:19.992Z,70.44
2018-06-05T07:29:48.111Z,70.64
2018-06-05T07:32:16.187Z,69.69
2018-06-05T07:34:44.253Z,69.41
2018-06-05T07:37:12.326Z,69.17
2018-06-05T07:39:40.395Z,68.95
2018-06-05T07:42:08.494Z,68.70
2018-06-05T07:44:36.607Z,68.46
2018-06-05T07:47:04.906Z,68.83
2018-06-05T07:49:32.987Z,69.75
2018-06-05T07:52:01.035Z,68.61
2018-06-05T07:54:29.090Z,68.80
2018-06-05T07:56:57.173Z,67.46
2018-06-05T07:59:25.267Z,67.62
2018-06-05T08:01:53.336Z,67.42
2018-06-05T08:04:21.465Z,66.43
2018-06-05T08:06:49.479Z,66.96
2018-06-05T08:09:17.571Z,66.75
2018-06-05T08:11:45.693Z,66.68
2018-06-05T08:14:13.771Z,66.50
2018-06-05T08:16:41.872Z,66.73
2018-06-05T08:19:09.979Z,66.72
2018-06-05T08:21:38.059Z,66.51
2018-06-05T08:24:06.131Z,66.52
2018-06-05T08:26:44.973Z,66.62
2018-06-05T08:29:13.131Z,65.83
2018-06-05T08:31:41.282Z,66.28
2018-06-05T08:34:09.503Z,65.45
2018-06-05T08:36:37.747Z,65.51
2018-06-05T08:39:07.635Z,65.12
2018-06-05T08:41:35.848Z,65.22
2018-06-05T08:44:04.320Z,65.60
2018-06-05T08:46:32.496Z,65.35
2018-06-05T08:49:00.680Z,64.70
2018-06-05T08:51:28.868Z,64.98
2018-06-05T08:53:57.044Z,65.16
2018-06-05T08:56:25.218Z,64.36
2018-06-05T08:58:53.440Z,64.20
2018-06-05T09:01:21.598Z,64.26
2018-06-05T09:03:49.757Z,64.04
2018-06-05T09:06:18.071Z,63.08
2018-06-05T09:08:46.225Z,62.46
2018-06-05T09:11:14.374Z,62.57
2018-06-05T09:13:42.596Z,62.48
2018-06-05T09:16:10.794Z,62.78
2018-06-05T09:18:38.995Z,62.08
2018-06-05T09:21:07.182Z,61.87
2018-06-05T09:23:35.420Z,62.13
2018-06-05T09:26:03.607Z,61.25
2018-06-05T09:28:31.807Z,61.17
2018-06-05T09:31:00.045Z,61.46
2018-06-05T09:33:28.207Z,61.48
2018-06-05T09:35:56.365Z,61.58
2018-06-05T09:38:24.620Z,60.74
2018-06-05T09:40:52.816Z,60.38
2018-06-05T09:43:20.989Z,60.54
2018-06-05T09:45:49.171Z,60.84
2018-06-05T09:48:17.351Z,60.06
2018-06-05T09:50:45.927Z,60.27
2018-06-05T09:53:14.087Z,61.05
2018-06-05T09:55:42.231Z,60.06
2018-06-05T09:58:10.498Z,58.81
2018-06-05T10:00:43.845Z,59.75
2018-06-05T10:03:12.019Z,59.86
2018-06-05T10:05:40.235Z,60.02
2018-06-05T10:08:08.495Z,59.27
2018-06-05T10:10:36.731Z,59.19
2018-06-05T10:13:04.943Z,58.38
2018-06-05T10:15:33.108Z,58.29
2018-06-05T10:18:01.296Z,58.46
2018-06-05T10:20:29.526Z,59.60
2018-06-05T10:22:57.691Z,57.97
2018-06-05T10:25:25.931Z,57.55
2018-06-05T10:27:54.129Z,57.24
2018-06-05T10:30:22.246Z,57.74
2018-06-05T10:32:50.391Z,57.41
2018-06-05T10:35:19.214Z,57.19
2018-06-05T10:37:47.377Z,56.56
2018-06-05T10:40:15.626Z,56.82
2018-06-05T10:42:43.767Z,56.80
2018-06-05T10:45:11.946Z,56.69
2018-06-05T10:47:40.178Z,56.52
2018-06-05T10:50:08.323Z,55.36
2018-06-05T10:52:36.506Z,56.45
2018-06-05T10:55:04.794Z,55.93
2018-06-05T10:57:33.025Z,55.78
2018-06-05T11:00:01.272Z,55.45
2018-06-05T11:02:29.457Z,56.04
2018-06-05T11:04:57.634Z,56.84
2018-06-05T11:07:25.854Z,55.34
2018-06-05T11:09:54.751Z,55.49
2018-06-05T11:12:23.773Z,55.63
2018-06-05T11:14:52.738Z,55.22
2018-06-05T11:17:20.899Z,55.52
2018-06-05T11:19:49.256Z,55.04
2018-06-05T11:22:17.887Z,54.19
2018-06-05T11:24:46.028Z,52.64
2018-06-05T11:27:14.178Z,53.58
2018-06-05T11:29:42.326Z,54.79
2018-06-05T11:32:10.464Z,54.44
2018-06-05T11:34:38.670Z,53.66
2018-06-05T11:37:06.836Z,53.29
2018-06-05T11:39:35.090Z,51.87
2018-06-05T11:42:03.232Z,52.11
2018-06-05T11:44:31.457Z,52.39
2018-06-05T11:46:59.677Z,52.54
2018-06-05T11:49:27.805Z,52.11
2018-06-05T11:51:55.967Z,51.92
2018-06-05T11:54:24.153Z,50.48
2018-06-05T11:56:52.377Z,48.61
2018-06-05T11:59:20.508Z,48.36
2018-06-05T12:01:48.736Z,48.27
2018-06-05T12:04:17.174Z,49.23
2018-06-05T12:06:46.518Z,46.94
2018-06-05T12:09:14.730Z,46.82
2018-06-05T12:11:42.907Z,45.10
2018-06-05T12:14:11.100Z,46.62
2018-06-05T12:16:39.230Z,47.58
2018-06-05T12:19:07.423Z,48.05
2018-06-05T12:21:36.671Z,49.83
2018-06-05T12:24:04.857Z,48.33
2018-06-05T12:26:33.030Z,47.80
2018-06-05T12:29:01.192Z,48.44
2018-06-05T12:31:29.393Z,49.06
2018-06-05T12:33:57.535Z,48.78
2018-06-05T12:36:25.679Z,48.39
2018-06-05T12:38:53.945Z,48.06
2018-06-05T12:41:22.920Z,48.03
2018-06-05T12:43:51.100Z,47.58
2018-06-05T12:46:19.278Z,48.25
2018-06-05T12:48:48.204Z,47.88
2018-06-05T12:51:16.360Z,47.57
2018-06-05T12:53:45.449Z,47.13
2018-06-05T12:56:14.204Z,46.96
2018-06-05T12:58:43.266Z,47.72
2018-06-05T13:01:11.404Z,47.42
2018-06-05T13:03:39.582Z,47.90
2018-06-05T13:06:07.775Z,47.16
2018-06-05T13:08:35.912Z,46.84
2018-06-05T13:11:04.551Z,46.72
2018-06-05T13:13:33.039Z,45.06
2018-06-05T13:16:01.224Z,45.79
2018-06-05T13:18:29.420Z,46.14
2018-06-05T13:20:57.606Z,45.44
2018-06-05T13:23:26.517Z,44.77
2018-06-05T13:25:55.307Z,46.04
2018-06-05T13:28:23.599Z,44.93
2018-06-05T13:30:52.367Z,45.30
2018-06-05T13:33:20.540Z,44.99
2018-06-05T13:35:48.775Z,45.82
2018-06-05T13:38:17.511Z,46.24
2018-06-05T13:40:46.281Z,45.63
2018-06-05T13:43:14.408Z,44.46
2018-06-05T13:45:42.658Z,43.88
2018-06-05T13:48:10.812Z,43.41
2018-06-05T13:50:39.644Z,44.31
2018-06-05T13:53:07.811Z,45.49
2018-06-05T13:55:36.001Z,44.06
2018-06-05T13:58:04.211Z,44.03
2018-06-05T14:00:32.388Z,43.43
2018-06-05T14:03:00.563Z,43.16
2018-06-05T14:05:28.688Z,43.63
2018-06-05T14:07:56.832Z,43.46
2018-06-05T14:10:25.073Z,44.05
2018-06-05T14:12:53.196Z,43.60
2018-06-05T14:15:21.331Z,44.63
2018-06-05T14:17:49.474Z,44.93
2018-06-05T14:20:17.595Z,44.52
2018-06-05T14:22:45.739Z,43.59
2018-06-05T14:25:13.870Z,43.31
2018-06-05T14:27:42.012Z,43.30
2018-06-05T14:30:10.160Z,44.11
2018-06-05T14:32:38.310Z,43.89
2018-06-05T14:35:06.475Z,43.93
2018-06-05T14:37:34.608Z,43.07
2018-06-05T14:40:02.754Z,43.65
2018-06-05T14:42:30.891Z,44.44
2018-06-05T14:44:59.055Z,43.93
2018-06-05T14:47:27.179Z,43.11
2018-06-05T14:49:55.339Z,44.36
2018-06-05T14:52:23.484Z,43.23
2018-06-05T14:54:51.623Z,43.08
2018-06-05T14:57:19.772Z,43.28
2018-06-05T14:59:47.911Z,44.12
2018-06-05T15:02:16.091Z,43.51
2018-06-05T15:04:44.228Z,45.60
2018-06-05T15:07:12.363Z,44.83
2018-06-05T15:09:40.981Z,45.30
2018-06-05T15:12:09.158Z,44.92
2018-06-05T15:14:37.343Z,44.71
2018-06-05T15:17:05.467Z,43.59
2018-06-05T15:19:33.644Z,44.49
2018-06-05T15:22:01.805Z,44.18
2018-06-05T15:24:29.946Z,43.02
2018-06-05T15:26:58.116Z,42.91
2018-06-05T15:29:26.265Z,43.46
2018-06-05T15:31:54.395Z,43.62
2018-06-05T15:34:22.592Z,43.54
2018-06-05T15:36:50.736Z,43.58
2018-06-05T15:39:18.955Z,43.76
2018-06-05T15:41:47.116Z,43.17
2018-06-05T15:44:15.275Z,43.95
2018-06-05T15:46:43.434Z,44.40
2018-06-05T15:49:11.582Z,43.94
2018-06-05T15:51:39.712Z,42.19
2018-06-05T15:54:07.855Z,42.09
2018-06-05T15:56:36.023Z,41.54
2018-06-05T15:59:04.212Z,41.86
2018-06-05T16:01:32.315Z,42.17
2018-06-05T16:04:00.478Z,41.14
2018-06-05T16:06:28.666Z,40.95
2018-06-05T16:08:56.811Z,41.67
2018-06-05T16:11:24.962Z,42.26
2018-06-05T16:13:53.126Z,41.71
2018-06-05T16:16:21.268Z,43.17
2018-06-05T16:18:49.444Z,42.96
2018-06-05T16:21:17.634Z,39.51
2018-06-05T16:23:45.761Z,40.06
2018-06-05T16:26:13.955Z,41.50
2018-06-05T16:28:42.099Z,41.76
2018-06-05T16:31:10.264Z,41.39
2018-06-05T16:33:38.432Z,41.45
2018-06-05T16:36:06.567Z,40.02
2018-06-05T16:38:34.696Z,39.73
2018-06-05T16:41:02.841Z,39.87
2018-06-05T16:43:31.012Z,41.23
2018-06-05T16:45:59.147Z,39.56
2018-06-05T16:48:27.275Z,41.25
2018-06-05T16:50:55.420Z,39.55
2018-06-05T16:53:23.556Z,40.54
2018-06-05T16:55:51.985Z,40.24
2018-06-05T16:58:20.158Z,39.14
2018-06-05T17:00:48.291Z,38.68
2018-06-05T17:03:16.428Z,37.94
2018-06-05T17:05:44.650Z,36.75
2018-06-05T17:08:12.876Z,36.52
2018-06-05T17:10:41.038Z,37.20
2018-06-05T17:13:09.189Z,36.57
2018-06-05T17:15:37.327Z,35.01
2018-06-05T17:18:05.461Z,35.89
2018-06-05T17:20:33.605Z,35.21
2018-06-05T17:23:01.755Z,35.92
2018-06-05T17:25:29.915Z,35.65
2018-06-05T17:27:58.257Z,36.32
2018-06-05T17:30:26.447Z,36.16
2018-06-05T17:32:54.618Z,36.53
2018-06-05T17:35:22.967Z,36.66
2018-06-05T17:37:51.099Z,36.83
2018-06-05T17:40:19.351Z,35.18
2018-06-05T17:42:47.442Z,34.73
2018-06-05T17:45:15.563Z,35.73
2018-06-05T17:47:43.726Z,36.05
2018-06-05T17:50:11.875Z,38.08
2018-06-05T17:52:40.006Z,38.07
2018-06-05T17:55:08.153Z,39.96
2018-06-05T17:57:36.327Z,39.75
2018-06-05T18:00:04.467Z,41.11
2018-06-05T18:02:32.719Z,41.59
2018-06-05T18:05:00.874Z,42.77
2018-06-05T18:07:29.024Z,43.05
2018-06-05T18:09:57.170Z,44.18
2018-06-05T18:12:25.349Z,45.43
2018-06-05T18:14:53.437Z,47.15
2018-06-05T18:17:21.559Z,48.08
2018-06-05T18:19:49.770Z,48.51
2018-06-05T18:22:17.870Z,49.16
2018-06-05T18:24:46.088Z,48.95
2018-06-05T18:27:14.248Z,49.97
2018-06-05T18:29:42.426Z,50.82
2018-06-05T18:32:10.587Z,51.37
2018-06-05T18:34:38.735Z,52.03
2018-06-05T18:37:06.966Z,52.70
2018-06-05T18:39:36.843Z,52.96
2018-06-05T18:42:05.012Z,53.85
2018-06-05T18:44:33.143Z,54.58
2018-06-05T18:47:01.268Z,54.50
2018-06-05T18:49:29.554Z,55.07
2018-06-05T18:51:57.704Z,55.00
2018-06-05T18:54:25.855Z,55.65
2018-06-05T18:56:54.002Z,54.98
2018-06-05T18:59:22.156Z,55.74
2018-06-05T19:01:50.283Z,55.21
2018-06-05T19:04:18.447Z,55.73
2018-06-05T19:06:46.580Z,55.11
2018-06-05T19:09:14.728Z,55.12
2018-06-05T19:11:42.859Z,55.83
2018-06-05T19:14:11.007Z,55.69
2018-06-05T19:16:39.172Z,55.42
2018-06-05T19:19:07.408Z,55.82
2018-06-05T19:21:35.556Z,55.78
2018-06-05T19:24:03.709Z,55.68
2018-06-05T19:26:31.871Z,55.58
2018-06-05T19:29:00.027Z,55.67
2018-06-05T19:31:28.163Z,55.83
2018-06-05T19:33:56.296Z,55.84
2018-06-05T19:36:24.480Z,55.91
2018-06-05T19:38:52.649Z,55.99
2018-06-05T19:41:20.852Z,56.05
2018-06-05T19:43:48.932Z,56.58
2018-06-05T19:46:17.086Z,56.45
2018-06-05T19:48:45.225Z,56.75
2018-06-05T19:51:13.362Z,57.24
2018-06-05T19:53:41.478Z,57.50
2018-06-05T19:56:09.623Z,57.67
2018-06-05T19:58:37.750Z,58.10
2018-06-05T20:01:05.942Z,58.13
2018-06-05T20:03:34.147Z,58.70
2018-06-05T20:06:02.363Z,59.00
2018-06-05T20:08:31.153Z,58.99
2018-06-05T20:10:59.455Z,59.44
2018-06-05T20:13:27.697Z,59.55
2018-06-05T20:15:56.049Z,59.77
2018-06-05T20:18:24.243Z,59.84
2018-06-05T20:20:52.484Z,60.24
2018-06-05T20:23:20.763Z,60.18
2018-06-05T20:25:49.087Z,60.59
2018-06-05T20:28:20.467Z,60.79
2018-06-05T20:30:49.458Z,61.08
2018-06-05T20:33:17.836Z,61.15
2018-06-05T20:35:46.093Z,61.49
2018-06-05T20:38:14.748Z,61.42
2018-06-05T20:40:43.021Z,61.66
2018-06-05T20:43:11.269Z,61.91
2018-06-05T20:46:13.768Z,62.12
2018-06-05T20:49:00.191Z,62.43
2018-06-05T20:51:28.600Z,62.96
2018-06-05T20:53:56.883Z,62.95
2018-06-05T20:56:55.010Z,63.13
2018-06-05T20:59:32.105Z,63.44
2018-06-05T21:02:00.344Z,63.42
2018-06-05T21:04:28.613Z,63.64
2018-06-05T21:06:56.925Z,63.66
2018-06-05T21:09:27.555Z,63.92
2018-06-05T21:11:55.838Z,64.06
2018-06-05T21:14:24.157Z,63.98
2018-06-05T21:16:52.458Z,64.19
2018-06-05T21:19:20.757Z,64.20
2018-06-05T21:21:49.025Z,64.03
2018-06-05T21:24:17.300Z,64.58
2018-06-05T21:26:45.602Z,64.30
2018-06-05T21:29:14.040Z,64.37
2018-06-05T21:31:42.243Z,64.21
2018-06-05T21:34:10.504Z,64.56
2018-06-05T21:36:38.846Z,64.72
2018-06-05T21:39:09.269Z,64.83
2018-06-05T21:41:37.823Z,64.80
2018-06-05T21:44:06.737Z,64.53
2018-06-05T21:46:35.026Z,64.25
2018-06-05T21:49:03.720Z,64.76
2018-06-05T21:51:32.606Z,64.47
2018-06-05T21:54:00.912Z,64.55
2018-06-05T21:56:29.134Z,64.29
2018-06-05T21:58:57.398Z,64.88
2018-06-05T22:01:25.652Z,64.90
2018-06-05T22:03:53.886Z,65.11
2018-06-05T22:06:24.637Z,64.38
2018-06-05T22:08:52.980Z,64.97
2018-06-05T22:11:21.340Z,64.38
2018-06-05T22:13:49.784Z,65.23
2018-06-05T22:16:18.038Z,64.60
2018-06-05T22:18:46.381Z,65.55
2018-06-05T22:21:14.522Z,65.54
2018-06-05T22:23:42.663Z,65.58
2018-06-05T22:26:10.828Z,65.24
2018-06-05T22:28:39.277Z,65.62
2018-06-05T22:31:07.479Z,65.35
2018-06-05T22:33:35.933Z,66.43
2018-06-05T22:36:04.337Z,66.22
2018-06-05T22:38:38.927Z,65.96
2018-06-05T22:41:07.336Z,66.57
2018-06-05T22:43:36.474Z,66.88
2018-06-05T22:46:04.912Z,66.83
2018-06-05T22:48:33.919Z,66.35
2018-06-05T22:51:02.350Z,67.06
2018-06-05T22:53:30.851Z,67.36
2018-06-05T22:55:59.262Z,67.15
2018-06-05T22:58:27.602Z,68.11
2018-06-05T23:00:55.871Z,67.81
2018-06-05T23:03:24.848Z,67.74
2018-06-05T23:05:53.427Z,68.72
2018-06-05T23:08:21.752Z,67.67
2018-06-05T23:10:50.116Z,68.42
2018-06-05T23:13:18.629Z,67.80
2018-06-05T23:15:47.242Z,67.78
2018-06-05T23:18:15.684Z,67.92
2018-06-05T23:20:43.835Z,68.49
2018-06-05T23:23:12.051Z,67.94
2018-06-05T23:25:41.363Z,68.21
2018-06-05T23:28:09.556Z,68.90
2018-06-05T23:30:37.774Z,69.03
2018-06-05T23:33:05.953Z,68.72
2018-06-05T23:35:34.096Z,68.46
2018-06-05T23:38:02.243Z,69.27
2018-06-05T23:40:30.386Z,69.54
2018-06-05T23:42:58.561Z,68.83
2018-06-05T23:45:26.684Z,69.63
2018-06-05T23:47:54.858Z,69.86
2018-06-05T23:50:22.999Z,69.81
2018-06-05T23:52:51.156Z,69.52
2018-06-05T23:55:19.365Z,70.29
2018-06-05T23:57:47.509Z,69.74
